sensor_id;sensor_type;location;lat;lon;timestamp;temperature;humidity
71523;HTU21D;59343;51.102;5.884;2023-04-25T05:57:24;9.16;73.60
71523;HTU21D;59343;51.102;5.884;2023-04-25T05:59:53;9.21;73.28
71523;HTU21D;59343;51.102;5.884;2023-04-25T06:02:22;9.24;73.13
71523;HTU21D;59343;51.102;5.884;2023-04-25T06:04:52;9.34;72.83
71523;HTU21D;59343;51.102;5.884;2023-04-25T06:07:23;9.39;72.86
71523;HTU21D;59343;51.102;5.884;2023-04-25T06:09:56;9.42;72.79
71523;HTU21D;59343;51.102;5.884;2023-04-25T06:12:23;9.48;72.68
71523;HTU21D;59343;51.102;5.884;2023-04-25T06:14:52;9.52;72.57
71523;HTU21D;59343;51.102;5.884;2023-04-25T06:17:19;9.61;72.68
71523;HTU21D;59343;51.102;5.884;2023-04-25T06:19:49;9.66;72.40
71523;HTU21D;59343;51.102;5.884;2023-04-25T06:22:22;9.70;72.22
71523;HTU21D;59343;51.102;5.884;2023-04-25T06:24:57;9.81;71.84
71523;HTU21D;59343;51.102;5.884;2023-04-25T06:27:28;9.94;71.45
71523;HTU21D;59343;51.102;5.884;2023-04-25T06:30:21;10.05;71.10
71523;HTU21D;59343;51.102;5.884;2023-04-25T06:33:03;10.14;70.61
71523;HTU21D;59343;51.102;5.884;2023-04-25T06:35:31;10.16;70.48
71523;HTU21D;59343;51.102;5.884;2023-04-25T06:37:58;10.23;70.26
71523;HTU21D;59343;51.102;5.884;2023-04-25T06:40:24;10.33;70.01
71523;HTU21D;59343;51.102;5.884;2023-04-25T06:43:22;10.38;69.95
71523;HTU21D;59343;51.102;5.884;2023-04-25T06:45:48;10.51;70.14
71523;HTU21D;59343;51.102;5.884;2023-04-25T06:48:15;10.64;69.47
71523;HTU21D;59343;51.102;5.884;2023-04-25T06:50:42;10.69;69.09
71523;HTU21D;59343;51.102;5.884;2023-04-25T06:53:08;10.72;68.24
71523;HTU21D;59343;51.102;5.884;2023-04-25T06:55:35;10.71;67.58
71523;HTU21D;59343;51.102;5.884;2023-04-25T06:58:15;10.64;67.51
71523;HTU21D;59343;51.102;5.884;2023-04-25T07:01:00;10.63;67.14
71523;HTU21D;59343;51.102;5.884;2023-04-25T07:03:27;10.63;66.79
71523;HTU21D;59343;51.102;5.884;2023-04-25T07:05:58;10.57;66.25
71523;HTU21D;59343;51.102;5.884;2023-04-25T07:08:25;10.56;66.09
71523;HTU21D;59343;51.102;5.884;2023-04-25T07:10:54;10.52;66.32
71523;HTU21D;59343;51.102;5.884;2023-04-25T07:13:20;10.57;66.24
71523;HTU21D;59343;51.102;5.884;2023-04-25T07:15:49;10.70;66.17
71523;HTU21D;59343;51.102;5.884;2023-04-25T07:18:20;10.84;64.99
71523;HTU21D;59343;51.102;5.884;2023-04-25T07:20:47;10.92;64.48
71523;HTU21D;59343;51.102;5.884;2023-04-25T07:23:16;11.05;63.96
71523;HTU21D;59343;51.102;5.884;2023-04-25T07:25:42;11.16;63.26
71523;HTU21D;59343;51.102;5.884;2023-04-25T07:28:09;11.23;62.73
71523;HTU21D;59343;51.102;5.884;2023-04-25T07:30:36;11.29;62.77
71523;HTU21D;59343;51.102;5.884;2023-04-25T07:33:03;11.31;62.44
71523;HTU21D;59343;51.102;5.884;2023-04-25T07:35:30;11.26;62.79
71523;HTU21D;59343;51.102;5.884;2023-04-25T07:37:56;11.33;62.70
71523;HTU21D;59343;51.102;5.884;2023-04-25T07:40:24;11.43;62.24
71523;HTU21D;59343;51.102;5.884;2023-04-25T07:42:54;11.56;61.67
71523;HTU21D;59343;51.102;5.884;2023-04-25T07:45:27;11.60;61.59
71523;HTU21D;59343;51.102;5.884;2023-04-25T07:47:54;11.73;61.17
71523;HTU21D;59343;51.102;5.884;2023-04-25T07:50:21;11.86;60.38
71523;HTU21D;59343;51.102;5.884;2023-04-25T07:52:47;11.82;60.59
71523;HTU21D;59343;51.102;5.884;2023-04-25T07:55:21;11.86;60.15
71523;HTU21D;59343;51.102;5.884;2023-04-25T07:58:00;11.75;60.38
71523;HTU21D;59343;51.102;5.884;2023-04-25T08:00:29;11.76;60.50
71523;HTU21D;59343;51.102;5.884;2023-04-25T08:03:13;11.87;60.37
71523;HTU21D;59343;51.102;5.884;2023-04-25T08:05:41;11.90;60.52
71523;HTU21D;59343;51.102;5.884;2023-04-25T08:08:08;11.91;60.77
71523;HTU21D;59343;51.102;5.884;2023-04-25T08:10:34;12.00;59.65
71523;HTU21D;59343;51.102;5.884;2023-04-25T08:13:03;11.90;59.14
71523;HTU21D;59343;51.102;5.884;2023-04-25T08:15:29;11.86;58.96
71523;HTU21D;59343;51.102;5.884;2023-04-25T08:17:56;11.86;58.56
71523;HTU21D;59343;51.102;5.884;2023-04-25T08:20:24;11.67;58.57
71523;HTU21D;59343;51.102;5.884;2023-04-25T08:22:53;11.63;58.87
71523;HTU21D;59343;51.102;5.884;2023-04-25T08:25:34;11.56;58.97
71523;HTU21D;59343;51.102;5.884;2023-04-25T08:28:12;11.53;59.44
71523;HTU21D;59343;51.102;5.884;2023-04-25T08:30:53;11.53;59.00
71523;HTU21D;59343;51.102;5.884;2023-04-25T08:33:27;11.67;59.32
71523;HTU21D;59343;51.102;5.884;2023-04-25T08:36:12;11.84;58.60
71523;HTU21D;59343;51.102;5.884;2023-04-25T08:38:38;11.93;58.38
71523;HTU21D;59343;51.102;5.884;2023-04-25T08:41:36;12.21;58.02
71523;HTU21D;59343;51.102;5.884;2023-04-25T08:44:26;12.53;57.38
71523;HTU21D;59343;51.102;5.884;2023-04-25T08:48:16;12.81;55.52
71523;HTU21D;59343;51.102;5.884;2023-04-25T08:50:30;12.72;55.37
71523;HTU21D;59343;51.102;5.884;2023-04-25T08:53:01;12.78;55.00
71523;HTU21D;59343;51.102;5.884;2023-04-25T08:55:30;12.91;54.81
71523;HTU21D;59343;51.102;5.884;2023-04-25T08:57:59;13.02;54.11
71523;HTU21D;59343;51.102;5.884;2023-04-25T09:00:26;13.12;53.73
71523;HTU21D;59343;51.102;5.884;2023-04-25T09:02:53;13.07;53.62
71523;HTU21D;59343;51.102;5.884;2023-04-25T09:05:20;13.06;54.01
71523;HTU21D;59343;51.102;5.884;2023-04-25T09:07:51;13.02;53.88
71523;HTU21D;59343;51.102;5.884;2023-04-25T09:10:17;13.01;53.81
71523;HTU21D;59343;51.102;5.884;2023-04-25T09:12:44;13.05;53.92
71523;HTU21D;59343;51.102;5.884;2023-04-25T09:15:12;13.05;53.86
71523;HTU21D;59343;51.102;5.884;2023-04-25T09:17:57;13.10;53.38
71523;HTU21D;59343;51.102;5.884;2023-04-25T09:20:25;13.05;53.78
71523;HTU21D;59343;51.102;5.884;2023-04-25T09:23:03;13.00;53.94
71523;HTU21D;59343;51.102;5.884;2023-04-25T09:25:36;12.89;53.45
71523;HTU21D;59343;51.102;5.884;2023-04-25T09:28:06;12.75;53.04
71523;HTU21D;59343;51.102;5.884;2023-04-25T09:30:35;12.59;53.10
71523;HTU21D;59343;51.102;5.884;2023-04-25T09:33:07;12.47;53.81
71523;HTU21D;59343;51.102;5.884;2023-04-25T09:35:42;12.51;54.02
71523;HTU21D;59343;51.102;5.884;2023-04-25T09:38:14;12.59;53.80
71523;HTU21D;59343;51.102;5.884;2023-04-25T09:40:58;12.62;53.06
71523;HTU21D;59343;51.102;5.884;2023-04-25T09:43:33;12.52;52.94
71523;HTU21D;59343;51.102;5.884;2023-04-25T09:46:08;12.40;52.55
71523;HTU21D;59343;51.102;5.884;2023-04-25T09:48:37;12.34;52.13
71523;HTU21D;59343;51.102;5.884;2023-04-25T09:51:09;12.32;51.77
71523;HTU21D;59343;51.102;5.884;2023-04-25T09:53:40;12.37;52.24
71523;HTU21D;59343;51.102;5.884;2023-04-25T09:56:36;12.50;51.72
71523;HTU21D;59343;51.102;5.884;2023-04-25T09:59:05;12.64;51.72
71523;HTU21D;59343;51.102;5.884;2023-04-25T10:01:35;12.73;51.34
71523;HTU21D;59343;51.102;5.884;2023-04-25T10:04:11;12.76;51.54
71523;HTU21D;59343;51.102;5.884;2023-04-25T10:06:53;12.70;51.67
71523;HTU21D;59343;51.102;5.884;2023-04-25T10:09:21;12.65;52.41
71523;HTU21D;59343;51.102;5.884;2023-04-25T10:11:50;12.69;52.49
71523;HTU21D;59343;51.102;5.884;2023-04-25T10:14:17;12.75;51.85
71523;HTU21D;59343;51.102;5.884;2023-04-25T10:16:45;12.61;51.54
71523;HTU21D;59343;51.102;5.884;2023-04-25T10:19:11;12.63;50.79
71523;HTU21D;59343;51.102;5.884;2023-04-25T10:21:48;12.72;50.57
71523;HTU21D;59343;51.102;5.884;2023-04-25T10:24:16;12.90;50.02
71523;HTU21D;59343;51.102;5.884;2023-04-25T10:26:42;13.02;49.37
71523;HTU21D;59343;51.102;5.884;2023-04-25T10:29:09;13.06;49.50
71523;HTU21D;59343;51.102;5.884;2023-04-25T10:31:45;13.22;49.44
71523;HTU21D;59343;51.102;5.884;2023-04-25T10:34:11;13.38;49.46
71523;HTU21D;59343;51.102;5.884;2023-04-25T10:36:37;13.60;49.47
71523;HTU21D;59343;51.102;5.884;2023-04-25T10:39:05;13.76;49.05
71523;HTU21D;59343;51.102;5.884;2023-04-25T10:41:47;13.95;49.02
71523;HTU21D;59343;51.102;5.884;2023-04-25T10:44:16;13.98;48.89
71523;HTU21D;59343;51.102;5.884;2023-04-25T10:46:44;13.96;48.72
71523;HTU21D;59343;51.102;5.884;2023-04-25T10:49:10;13.96;48.91
71523;HTU21D;59343;51.102;5.884;2023-04-25T10:52:17;14.21;48.86
71523;HTU21D;59343;51.102;5.884;2023-04-25T10:54:47;14.41;48.49
71523;HTU21D;59343;51.102;5.884;2023-04-25T11:02:43;14.53;46.57
71523;HTU21D;59343;51.102;5.884;2023-04-25T11:10:17;15.07;45.75
71523;HTU21D;59343;51.102;5.884;2023-04-25T11:12:45;15.10;45.28
71523;HTU21D;59343;51.102;5.884;2023-04-25T11:15:12;15.03;45.03
71523;HTU21D;59343;51.102;5.884;2023-04-25T11:17:39;14.83;45.22
71523;HTU21D;59343;51.102;5.884;2023-04-25T11:20:07;14.64;45.38
71523;HTU21D;59343;51.102;5.884;2023-04-25T11:22:38;14.25;46.28
71523;HTU21D;59343;51.102;5.884;2023-04-25T11:25:07;13.99;46.92
71523;HTU21D;59343;51.102;5.884;2023-04-25T11:27:33;13.92;47.41
71523;HTU21D;59343;51.102;5.884;2023-04-25T11:30:13;13.91;47.64
71523;HTU21D;59343;51.102;5.884;2023-04-25T11:32:41;13.84;47.57
71523;HTU21D;59343;51.102;5.884;2023-04-25T11:35:12;13.80;48.18
71523;HTU21D;59343;51.102;5.884;2023-04-25T11:37:42;13.94;48.37
71523;HTU21D;59343;51.102;5.884;2023-04-25T11:40:10;14.06;48.04
71523;HTU21D;59343;51.102;5.884;2023-04-25T11:42:45;14.12;46.90
71523;HTU21D;59343;51.102;5.884;2023-04-25T11:45:13;14.04;46.81
71523;HTU21D;59343;51.102;5.884;2023-04-25T11:47:40;13.93;47.35
71523;HTU21D;59343;51.102;5.884;2023-04-25T11:50:11;13.88;47.47
71523;HTU21D;59343;51.102;5.884;2023-04-25T11:52:45;13.88;47.10
71523;HTU21D;59343;51.102;5.884;2023-04-25T11:55:17;13.90;47.12
71523;HTU21D;59343;51.102;5.884;2023-04-25T11:57:46;13.96;46.95
71523;HTU21D;59343;51.102;5.884;2023-04-25T12:00:16;14.20;47.32
71523;HTU21D;59343;51.102;5.884;2023-04-25T12:02:45;14.56;47.43
71523;HTU21D;59343;51.102;5.884;2023-04-25T12:05:13;15.02;46.55
71523;HTU21D;59343;51.102;5.884;2023-04-25T12:07:40;15.28;44.95
71523;HTU21D;59343;51.102;5.884;2023-04-25T12:10:09;15.22;44.63
71523;HTU21D;59343;51.102;5.884;2023-04-25T12:12:36;15.07;44.16
71523;HTU21D;59343;51.102;5.884;2023-04-25T12:17:44;14.60;44.70
71523;HTU21D;59343;51.102;5.884;2023-04-25T12:20:15;14.34;45.28
71523;HTU21D;59343;51.102;5.884;2023-04-25T12:22:43;14.09;46.24
71523;HTU21D;59343;51.102;5.884;2023-04-25T12:25:13;13.85;47.20
71523;HTU21D;59343;51.102;5.884;2023-04-25T12:27:48;13.56;48.41
71523;HTU21D;59343;51.102;5.884;2023-04-25T12:30:55;13.33;50.67
71523;HTU21D;59343;51.102;5.884;2023-04-25T12:36:55;13.00;50.61
71523;HTU21D;59343;51.102;5.884;2023-04-25T12:39:57;12.94;50.47
71523;HTU21D;59343;51.102;5.884;2023-04-25T12:42:49;12.94;51.21
71523;HTU21D;59343;51.102;5.884;2023-04-25T12:45:15;13.04;50.99
71523;HTU21D;59343;51.102;5.884;2023-04-25T12:48:09;13.12;51.25
71523;HTU21D;59343;51.102;5.884;2023-04-25T12:50:44;13.25;51.10
71523;HTU21D;59343;51.102;5.884;2023-04-25T12:53:11;13.43;50.61
71523;HTU21D;59343;51.102;5.884;2023-04-25T12:58:50;13.53;49.18
71523;HTU21D;59343;51.102;5.884;2023-04-25T13:01:42;13.37;49.95
71523;HTU21D;59343;51.102;5.884;2023-04-25T13:04:17;13.29;51.30
71523;HTU21D;59343;51.102;5.884;2023-04-25T13:06:59;13.25;52.32
71523;HTU21D;59343;51.102;5.884;2023-04-25T13:09:58;13.37;52.07
71523;HTU21D;59343;51.102;5.884;2023-04-25T13:13:32;13.30;51.97
71523;HTU21D;59343;51.102;5.884;2023-04-25T13:16:16;13.17;52.20
71523;HTU21D;59343;51.102;5.884;2023-04-25T13:19:19;13.06;52.16
71523;HTU21D;59343;51.102;5.884;2023-04-25T13:25:46;12.90;52.84
71523;HTU21D;59343;51.102;5.884;2023-04-25T13:28:52;13.01;52.61
71523;HTU21D;59343;51.102;5.884;2023-04-25T13:32:10;13.12;53.19
71523;HTU21D;59343;51.102;5.884;2023-04-25T13:34:50;13.44;52.75
71523;HTU21D;59343;51.102;5.884;2023-04-25T13:37:30;13.91;52.14
71523;HTU21D;59343;51.102;5.884;2023-04-25T13:40:19;14.14;50.60
71523;HTU21D;59343;51.102;5.884;2023-04-25T13:42:45;14.23;50.24
71523;HTU21D;59343;51.102;5.884;2023-04-25T13:45:17;14.33;49.73
71523;HTU21D;59343;51.102;5.884;2023-04-25T13:47:46;14.28;49.76
71523;HTU21D;59343;51.102;5.884;2023-04-25T13:50:13;14.38;50.11
71523;HTU21D;59343;51.102;5.884;2023-04-25T13:52:40;14.45;48.98
71523;HTU21D;59343;51.102;5.884;2023-04-25T13:55:07;14.50;48.92
71523;HTU21D;59343;51.102;5.884;2023-04-25T13:57:34;14.50;48.42
71523;HTU21D;59343;51.102;5.884;2023-04-25T14:00:01;14.34;48.49
71523;HTU21D;59343;51.102;5.884;2023-04-25T14:02:35;14.33;48.82
71523;HTU21D;59343;51.102;5.884;2023-04-25T14:05:02;14.43;49.13
71523;HTU21D;59343;51.102;5.884;2023-04-25T14:07:28;14.57;48.71
71523;HTU21D;59343;51.102;5.884;2023-04-25T14:09:54;14.72;48.27
71523;HTU21D;59343;51.102;5.884;2023-04-25T14:12:20;14.89;48.01
71523;HTU21D;59343;51.102;5.884;2023-04-25T14:14:46;14.82;47.56
71523;HTU21D;59343;51.102;5.884;2023-04-25T14:17:12;14.83;47.72
71523;HTU21D;59343;51.102;5.884;2023-04-25T14:19:38;14.81;47.18
71523;HTU21D;59343;51.102;5.884;2023-04-25T14:22:09;14.68;46.91
71523;HTU21D;59343;51.102;5.884;2023-04-25T14:24:34;14.59;45.77
71523;HTU21D;59343;51.102;5.884;2023-04-25T14:27:00;14.58;45.61
71523;HTU21D;59343;51.102;5.884;2023-04-25T14:29:26;14.43;45.13
71523;HTU21D;59343;51.102;5.884;2023-04-25T14:31:52;14.32;45.28
71523;HTU21D;59343;51.102;5.884;2023-04-25T14:34:19;14.17;45.60
71523;HTU21D;59343;51.102;5.884;2023-04-25T14:36:45;14.00;45.76
71523;HTU21D;59343;51.102;5.884;2023-04-25T14:39:12;13.74;45.85
71523;HTU21D;59343;51.102;5.884;2023-04-25T14:41:39;13.51;46.49
71523;HTU21D;59343;51.102;5.884;2023-04-25T14:44:05;13.43;46.86
71523;HTU21D;59343;51.102;5.884;2023-04-25T14:46:31;13.41;47.10
71523;HTU21D;59343;51.102;5.884;2023-04-25T14:48:57;13.30;46.75
71523;HTU21D;59343;51.102;5.884;2023-04-25T14:51:23;13.19;46.67
71523;HTU21D;59343;51.102;5.884;2023-04-25T14:53:49;13.05;46.73
71523;HTU21D;59343;51.102;5.884;2023-04-25T14:56:16;12.99;46.80
71523;HTU21D;59343;51.102;5.884;2023-04-25T14:58:42;13.01;47.03
71523;HTU21D;59343;51.102;5.884;2023-04-25T15:01:09;13.15;46.61
71523;HTU21D;59343;51.102;5.884;2023-04-25T15:03:35;13.37;45.91
71523;HTU21D;59343;51.102;5.884;2023-04-25T15:06:01;13.44;46.15
71523;HTU21D;59343;51.102;5.884;2023-04-25T15:08:30;13.64;46.76
71523;HTU21D;59343;51.102;5.884;2023-04-25T15:10:57;13.96;45.90
71523;HTU21D;59343;51.102;5.884;2023-04-25T15:13:23;14.24;45.28
71523;HTU21D;59343;51.102;5.884;2023-04-25T15:15:49;14.37;44.62
71523;HTU21D;59343;51.102;5.884;2023-04-25T15:18:20;14.39;44.67
71523;HTU21D;59343;51.102;5.884;2023-04-25T15:20:53;14.48;44.57
71523;HTU21D;59343;51.102;5.884;2023-04-25T15:23:20;14.58;44.42
71523;HTU21D;59343;51.102;5.884;2023-04-25T15:25:47;14.69;43.93
71523;HTU21D;59343;51.102;5.884;2023-04-25T15:28:13;14.68;43.23
71523;HTU21D;59343;51.102;5.884;2023-04-25T15:30:47;14.56;43.74
71523;HTU21D;59343;51.102;5.884;2023-04-25T15:33:22;14.57;43.96
71523;HTU21D;59343;51.102;5.884;2023-04-25T15:35:56;14.50;43.71
71523;HTU21D;59343;51.102;5.884;2023-04-25T15:38:27;14.18;44.27
71523;HTU21D;59343;51.102;5.884;2023-04-25T15:40:55;13.95;44.27
71523;HTU21D;59343;51.102;5.884;2023-04-25T15:43:24;13.78;44.46
71523;HTU21D;59343;51.102;5.884;2023-04-25T15:45:57;13.77;44.83
71523;HTU21D;59343;51.102;5.884;2023-04-25T15:48:31;13.89;44.80
71523;HTU21D;59343;51.102;5.884;2023-04-25T15:51:23;14.07;44.70
71523;HTU21D;59343;51.102;5.884;2023-04-25T15:54:00;14.23;44.11
71523;HTU21D;59343;51.102;5.884;2023-04-25T15:56:27;14.17;43.80
71523;HTU21D;59343;51.102;5.884;2023-04-25T15:58:53;14.23;43.97
71523;HTU21D;59343;51.102;5.884;2023-04-25T16:01:20;14.32;44.22
71523;HTU21D;59343;51.102;5.884;2023-04-25T16:03:49;14.15;45.16
71523;HTU21D;59343;51.102;5.884;2023-04-25T16:06:17;13.93;46.35
71523;HTU21D;59343;51.102;5.884;2023-04-25T16:08:43;13.71;47.22
71523;HTU21D;59343;51.102;5.884;2023-04-25T16:11:09;13.49;48.02
71523;HTU21D;59343;51.102;5.884;2023-04-25T16:13:35;13.37;48.69
71523;HTU21D;59343;51.102;5.884;2023-04-25T16:16:01;13.32;49.33
71523;HTU21D;59343;51.102;5.884;2023-04-25T16:18:51;13.27;49.51
71523;HTU21D;59343;51.102;5.884;2023-04-25T17:26:04;12.41;49.56
71523;HTU21D;59343;51.102;5.884;2023-04-25T17:28:33;12.42;49.64
71523;HTU21D;59343;51.102;5.884;2023-04-25T17:34:46;12.34;49.90
71523;HTU21D;59343;51.102;5.884;2023-04-25T17:37:16;12.38;50.53
71523;HTU21D;59343;51.102;5.884;2023-04-25T17:43:27;12.46;50.44
71523;HTU21D;59343;51.102;5.884;2023-04-25T17:46:45;12.49;50.44
71523;HTU21D;59343;51.102;5.884;2023-04-25T17:49:49;12.46;50.23
71523;HTU21D;59343;51.102;5.884;2023-04-25T17:53:06;12.38;50.12
71523;HTU21D;59343;51.102;5.884;2023-04-25T17:56:46;12.23;49.69
71523;HTU21D;59343;51.102;5.884;2023-04-25T17:59:15;12.15;49.89
71523;HTU21D;59343;51.102;5.884;2023-04-25T18:05:17;11.98;50.66
71523;HTU21D;59343;51.102;5.884;2023-04-25T18:08:12;11.90;51.01
71523;HTU21D;59343;51.102;5.884;2023-04-25T18:11:02;11.90;51.40
71523;HTU21D;59343;51.102;5.884;2023-04-25T18:13:49;11.82;50.98
71523;HTU21D;59343;51.102;5.884;2023-04-25T18:16:19;11.71;51.01
71523;HTU21D;59343;51.102;5.884;2023-04-25T18:19:09;11.64;50.73
71523;HTU21D;59343;51.102;5.884;2023-04-25T18:21:47;11.58;50.90
71523;HTU21D;59343;51.102;5.884;2023-04-25T18:24:17;11.58;50.84
71523;HTU21D;59343;51.102;5.884;2023-04-25T18:26:47;11.56;50.86
71523;HTU21D;59343;51.102;5.884;2023-04-25T18:29:19;11.51;50.98
71523;HTU21D;59343;51.102;5.884;2023-04-25T18:32:03;11.43;51.32
71523;HTU21D;59343;51.102;5.884;2023-04-25T18:37:54;11.22;51.33
71523;HTU21D;59343;51.102;5.884;2023-04-25T18:40:34;11.13;51.43
71523;HTU21D;59343;51.102;5.884;2023-04-25T18:43:03;11.09;51.66
71523;HTU21D;59343;51.102;5.884;2023-04-25T18:49:41;10.94;51.75
71523;HTU21D;59343;51.102;5.884;2023-04-25T18:53:07;10.86;52.11
71523;HTU21D;59343;51.102;5.884;2023-04-25T18:55:34;10.80;52.15
71523;HTU21D;59343;51.102;5.884;2023-04-25T18:58:00;10.74;52.46
71523;HTU21D;59343;51.102;5.884;2023-04-25T19:00:28;10.71;52.63
71523;HTU21D;59343;51.102;5.884;2023-04-25T19:02:55;10.66;52.88
71523;HTU21D;59343;51.102;5.884;2023-04-25T19:05:31;10.60;53.13
71523;HTU21D;59343;51.102;5.884;2023-04-25T19:07:57;10.54;53.46
71523;HTU21D;59343;51.102;5.884;2023-04-25T19:10:24;10.51;53.51
71523;HTU21D;59343;51.102;5.884;2023-04-25T19:12:50;10.44;53.76
71523;HTU21D;59343;51.102;5.884;2023-04-25T19:15:16;10.39;54.01
71523;HTU21D;59343;51.102;5.884;2023-04-25T19:17:42;10.38;54.23
71523;HTU21D;59343;51.102;5.884;2023-04-25T19:20:09;10.33;54.46
71523;HTU21D;59343;51.102;5.884;2023-04-25T19:22:35;10.28;54.65
71523;HTU21D;59343;51.102;5.884;2023-04-25T19:25:01;10.21;54.91
71523;HTU21D;59343;51.102;5.884;2023-04-25T19:27:28;10.19;55.23
71523;HTU21D;59343;51.102;5.884;2023-04-25T19:29:53;10.13;55.39
71523;HTU21D;59343;51.102;5.884;2023-04-25T19:32:25;10.12;55.62
71523;HTU21D;59343;51.102;5.884;2023-04-25T19:34:51;10.07;55.89
71523;HTU21D;59343;51.102;5.884;2023-04-25T19:37:29;10.05;56.05
71523;HTU21D;59343;51.102;5.884;2023-04-25T19:39:58;10.01;56.11
71523;HTU21D;59343;51.102;5.884;2023-04-25T19:42:24;9.97;56.24
71523;HTU21D;59343;51.102;5.884;2023-04-25T19:44:51;9.91;56.26
71523;HTU21D;59343;51.102;5.884;2023-04-25T19:47:18;9.81;56.61
71523;HTU21D;59343;51.102;5.884;2023-04-25T19:49:44;9.74;57.00
71523;HTU21D;59343;51.102;5.884;2023-04-25T19:52:36;9.66;57.44
71523;HTU21D;59343;51.102;5.884;2023-04-25T19:55:04;9.63;57.74
71523;HTU21D;59343;51.102;5.884;2023-04-25T19:57:31;9.64;57.96
71523;HTU21D;59343;51.102;5.884;2023-04-25T20:00:06;9.61;58.29
71523;HTU21D;59343;51.102;5.884;2023-04-25T20:02:38;9.59;58.54
71523;HTU21D;59343;51.102;5.884;2023-04-25T20:05:06;9.56;58.60
71523;HTU21D;59343;51.102;5.884;2023-04-25T20:07:33;9.52;58.84
71523;HTU21D;59343;51.102;5.884;2023-04-25T20:10:00;9.51;58.90
71523;HTU21D;59343;51.102;5.884;2023-04-25T20:12:26;9.51;58.97
71523;HTU21D;59343;51.102;5.884;2023-04-25T20:14:53;9.49;59.18
71523;HTU21D;59343;51.102;5.884;2023-04-25T20:17:18;9.47;59.42
71523;HTU21D;59343;51.102;5.884;2023-04-25T20:19:44;9.49;59.60
71523;HTU21D;59343;51.102;5.884;2023-04-25T20:22:10;9.51;59.73
71523;HTU21D;59343;51.102;5.884;2023-04-25T20:24:36;9.52;59.67
71523;HTU21D;59343;51.102;5.884;2023-04-25T20:27:03;9.50;59.62
71523;HTU21D;59343;51.102;5.884;2023-04-25T20:29:31;9.45;59.81
71523;HTU21D;59343;51.102;5.884;2023-04-25T20:31:58;9.40;59.65
71523;HTU21D;59343;51.102;5.884;2023-04-25T20:34:24;9.40;59.67
71523;HTU21D;59343;51.102;5.884;2023-04-25T20:36:51;9.37;59.70
71523;HTU21D;59343;51.102;5.884;2023-04-25T20:39:18;9.34;59.77
71523;HTU21D;59343;51.102;5.884;2023-04-25T20:41:44;9.34;59.88
71523;HTU21D;59343;51.102;5.884;2023-04-25T20:44:10;9.33;60.07
71523;HTU21D;59343;51.102;5.884;2023-04-25T20:46:38;9.31;60.15
71523;HTU21D;59343;51.102;5.884;2023-04-25T20:49:04;9.30;60.15
71523;HTU21D;59343;51.102;5.884;2023-04-25T20:51:31;9.27;60.32
71523;HTU21D;59343;51.102;5.884;2023-04-25T20:53:57;9.24;60.45
71523;HTU21D;59343;51.102;5.884;2023-04-25T20:56:23;9.21;60.64
71523;HTU21D;59343;51.102;5.884;2023-04-25T20:58:51;9.18;60.83
71523;HTU21D;59343;51.102;5.884;2023-04-25T21:01:18;9.15;60.96
71523;HTU21D;59343;51.102;5.884;2023-04-25T21:03:44;9.09;61.10
71523;HTU21D;59343;51.102;5.884;2023-04-25T21:06:13;9.07;61.04
71523;HTU21D;59343;51.102;5.884;2023-04-25T21:08:39;9.07;60.86
71523;HTU21D;59343;51.102;5.884;2023-04-25T21:11:05;9.04;60.78
71523;HTU21D;59343;51.102;5.884;2023-04-25T21:13:33;8.96;60.92
71523;HTU21D;59343;51.102;5.884;2023-04-25T21:15:59;8.94;61.02
71523;HTU21D;59343;51.102;5.884;2023-04-25T21:18:25;8.92;60.90
71523;HTU21D;59343;51.102;5.884;2023-04-25T21:21:00;8.87;61.34
71523;HTU21D;59343;51.102;5.884;2023-04-25T21:23:32;8.80;61.44
71523;HTU21D;59343;51.102;5.884;2023-04-25T21:25:58;8.80;61.71
71523;HTU21D;59343;51.102;5.884;2023-04-25T21:28:23;8.74;61.83
71523;HTU21D;59343;51.102;5.884;2023-04-25T21:30:49;8.72;62.23
71523;HTU21D;59343;51.102;5.884;2023-04-25T21:33:15;8.65;62.30
71523;HTU21D;59343;51.102;5.884;2023-04-25T21:35:41;8.61;62.28
71523;HTU21D;59343;51.102;5.884;2023-04-25T21:38:07;8.57;62.42
71523;HTU21D;59343;51.102;5.884;2023-04-25T21:40:33;8.53;62.76
71523;HTU21D;59343;51.102;5.884;2023-04-25T21:43:00;8.48;62.88
71523;HTU21D;59343;51.102;5.884;2023-04-25T21:45:26;8.44;62.82
71523;HTU21D;59343;51.102;5.884;2023-04-25T21:47:54;8.42;62.92
71523;HTU21D;59343;51.102;5.884;2023-04-25T21:50:20;8.39;63.22
71523;HTU21D;59343;51.102;5.884;2023-04-25T21:52:47;8.37;63.13
71523;HTU21D;59343;51.102;5.884;2023-04-25T21:55:16;8.36;62.92
71523;HTU21D;59343;51.102;5.884;2023-04-25T21:57:44;8.32;62.92
71523;HTU21D;59343;51.102;5.884;2023-04-25T22:00:11;8.31;63.21
71523;HTU21D;59343;51.102;5.884;2023-04-25T22:02:55;8.29;63.38
71523;HTU21D;59343;51.102;5.884;2023-04-25T22:05:22;8.23;63.63
71523;HTU21D;59343;51.102;5.884;2023-04-25T22:07:49;8.19;63.63
71523;HTU21D;59343;51.102;5.884;2023-04-25T22:10:16;8.16;63.69
71523;HTU21D;59343;51.102;5.884;2023-04-25T22:12:42;8.13;64.09
71523;HTU21D;59343;51.102;5.884;2023-04-25T22:15:09;8.08;64.47
71523;HTU21D;59343;51.102;5.884;2023-04-25T22:17:38;8.07;64.61
71523;HTU21D;59343;51.102;5.884;2023-04-25T22:20:08;8.06;64.74
71523;HTU21D;59343;51.102;5.884;2023-04-25T22:22:44;8.02;64.83
71523;HTU21D;59343;51.102;5.884;2023-04-25T22:25:10;8.01;64.81
71523;HTU21D;59343;51.102;5.884;2023-04-25T22:27:39;8.01;64.72
71523;HTU21D;59343;51.102;5.884;2023-04-25T22:30:10;7.98;64.68
71523;HTU21D;59343;51.102;5.884;2023-04-25T22:32:41;7.92;65.11
71523;HTU21D;59343;51.102;5.884;2023-04-25T22:35:08;7.86;64.89
71523;HTU21D;59343;51.102;5.884;2023-04-25T22:37:34;7.85;65.35
71523;HTU21D;59343;51.102;5.884;2023-04-25T22:40:01;7.83;65.70
71523;HTU21D;59343;51.102;5.884;2023-04-25T22:42:38;7.78;65.76
71523;HTU21D;59343;51.102;5.884;2023-04-25T22:45:06;7.76;65.94
71523;HTU21D;59343;51.102;5.884;2023-04-25T22:47:37;7.73;66.11
71523;HTU21D;59343;51.102;5.884;2023-04-25T22:50:04;7.70;66.23
71523;HTU21D;59343;51.102;5.884;2023-04-25T22:52:32;7.65;66.63
71523;HTU21D;59343;51.102;5.884;2023-04-25T22:54:59;7.61;66.62
71523;HTU21D;59343;51.102;5.884;2023-04-25T22:57:28;7.61;66.88
71523;HTU21D;59343;51.102;5.884;2023-04-25T22:59:54;7.59;66.89
71523;HTU21D;59343;51.102;5.884;2023-04-25T23:02:21;7.56;67.19
71523;HTU21D;59343;51.102;5.884;2023-04-25T23:04:47;7.54;67.21
71523;HTU21D;59343;51.102;5.884;2023-04-25T23:07:13;7.49;66.73
71523;HTU21D;59343;51.102;5.884;2023-04-25T23:09:39;7.44;66.98
71523;HTU21D;59343;51.102;5.884;2023-04-25T23:12:06;7.41;67.19
71523;HTU21D;59343;51.102;5.884;2023-04-25T23:14:32;7.35;67.42
71523;HTU21D;59343;51.102;5.884;2023-04-25T23:16:58;7.30;67.57
71523;HTU21D;59343;51.102;5.884;2023-04-25T23:19:24;7.30;67.47
71523;HTU21D;59343;51.102;5.884;2023-04-25T23:21:51;7.29;67.47
71523;HTU21D;59343;51.102;5.884;2023-04-25T23:24:17;7.29;67.28
71523;HTU21D;59343;51.102;5.884;2023-04-25T23:26:43;7.30;67.12
71523;HTU21D;59343;51.102;5.884;2023-04-25T23:29:09;7.27;67.49
71523;HTU21D;59343;51.102;5.884;2023-04-25T23:31:35;7.23;67.82